Buffalo, WY (82834)

2:29 PM MST on February 08, 2016 (GMT -0700)
Buffalo | | Change Station
CLOSE
Current Station
Personal Weather Station
Location: Buffalo, WY
Elevation: 4708 ft
Nearby Weather Stations

Elev 4708 ft 44.34 °N, 106.70 °W | Updated 9 seconds ago

Clear
Clear
47.8 °F
Feels Like 43 °F
N
10.7
Wind Variable Wind from NW
Gusts 15.0 mph

Today
High -- | Low -- °F
--% Chance of Precip.
Yesterday
High -- | Low -- °F
Precip. -- in
Pressure 30.38 in
Visibility 10.0 miles
Clouds Clear
Windchill 43 °F
Dew Point 29 °F
Humidity 47%
Rainfall 0.00 in
Snow Depth Not available.
7:16 AM 5:25 PM
New Moon, 0% visible
METAR KBYG 082053Z AUTO 36015G21KT 10SM CLR 08/M02 A3033 RMK AO2 PK WND 36026/2015 SLP285 6//// T00831017 56015
Pressure 30.38 in
Visibility 10.0 miles
Clouds Clear
Windchill 43 °F
Dew Point 29 °F
Humidity 47%
Rainfall 0.00 in
Snow Depth Not available.
7:16 AM 5:25 PM
New Moon, 0% visible
METAR KBYG 082053Z AUTO 36015G21KT 10SM CLR 08/M02 A3033 RMK AO2 PK WND 36026/2015 SLP285 6//// T00831017 56015

10-Day Weather Forecast

Almanac

Astronomy

Feb. 08, 2016 Rise Set
Actual Time
Civil Twilight
Nautical Twilight
Astronomical Twilight
Moon
Length of Visible Light
Length of Day
Tomorrow will be .
, % of the Moon is Illuminated

Today's Extremes

State Highs State Lows

Community

WunderPhotos

Upload Photos

1,891,516 photos uploaded!

WunderBlog® & News

Nearby

Air Quality

  Air Quality AQ Index Pollutant
Not available.

Snow Depth

Station Depth Elevation

Earthquake Activity

City Distance Mag. Time & Date
Minimum magnitude displayed is 2.5.

Coastal Water Temperatures

Place Temperature

Stations

Nearby Weather Stations

Station Location Temp. Windchill Dew Point Humidity Wind Precip. Elev Updated Type
                   

Watches & Warnings

There are currently no watches in effect.